Time;durP1;ratioP1;P1;durP2;ratioP2;P2;SDS_P1;SDS_P2;PMS_P1;PMS_P2;Temp;Humidity;BMP_temperature;BMP_pressure;BME280_temperature;BME280_humidity;BME280_pressure;Samples;Min_cycle;Max_cycle;Signal;HPM_P1;HPM_P2
2023/04/16 00:00:47;;;;;;;8.27;3.17;;;;;7.50;101767.00;;;;9820932;29;20229;-83
2023/04/16 00:05:49;;;;;;;11.63;3.00;;;;;7.60;101768.00;;;;9832693;29;20765;-82
2023/04/16 00:10:54;;;;;;;7.10;3.23;;;;;7.60;101767.00;;;;9832407;29;20208;-82
2023/04/16 00:15:56;;;;;;;13.60;2.80;;;;;7.60;101768.00;;;;9861273;29;20630;-83
2023/04/16 00:20:58;;;;;;;6.37;3.13;;;;;7.60;101769.00;;;;9876138;29;20608;-82
2023/04/16 00:26:00;;;;;;;9.67;3.70;;;;;7.60;101756.00;;;;9829047;29;20616;-83
2023/04/16 00:31:02;;;;;;;5.43;3.60;;;;;7.60;101760.00;;;;9834521;29;20215;-82
2023/04/16 00:36:04;;;;;;;5.23;3.07;;;;;7.60;101745.00;;;;9861975;29;20206;-81
2023/04/16 00:41:06;;;;;;;7.33;3.37;;;;;7.60;101751.00;;;;9871463;29;20242;-82
2023/04/16 00:46:09;;;;;;;6.70;3.83;;;;;7.70;101747.00;;;;9873157;29;20704;-83
2023/04/16 00:51:11;;;;;;;6.87;3.87;;;;;7.70;101746.00;;;;9858521;29;20204;-82
2023/04/16 00:56:13;;;;;;;16.07;4.10;;;;;7.70;101752.00;;;;9827561;30;20235;-82
2023/04/16 01:01:15;;;;;;;5.83;3.93;;;;;7.70;101748.00;;;;9858482;29;20283;-82
2023/04/16 01:06:18;;;;;;;10.87;4.53;;;;;7.70;101753.00;;;;9834285;29;20203;-82
2023/04/16 01:11:20;;;;;;;9.33;4.33;;;;;7.70;101761.00;;;;9875177;29;20196;-82
2023/04/16 01:16:22;;;;;;;6.43;4.40;;;;;7.70;101764.00;;;;9874747;29;20257;-82
2023/04/16 01:21:25;;;;;;;7.40;4.20;;;;;7.70;101753.00;;;;9866243;29;20355;-82
2023/04/16 01:26:27;;;;;;;5.93;3.97;;;;;7.70;101763.00;;;;9830511;30;20265;-82
2023/04/16 01:31:29;;;;;;;8.00;4.40;;;;;7.70;101769.00;;;;9852544;29;20242;-82
2023/04/16 01:36:57;;;;;;;7.80;3.37;;;;;7.70;101771.00;;;;9855302;29;20212;-82
2023/04/16 01:42:00;;;;;;;7.80;3.60;;;;;7.80;101769.00;;;;9882136;29;20272;-81
2023/04/16 01:47:03;;;;;;;10.83;3.20;;;;;7.80;101773.00;;;;9880091;29;20214;-82
2023/04/16 01:52:07;;;;;;;6.97;2.90;;;;;7.80;101774.00;;;;9850722;30;20501;-82
2023/04/16 01:57:10;;;;;;;5.60;2.50;;;;;7.80;101775.00;;;;9845312;30;20224;-82
2023/04/16 02:02:14;;;;;;;4.10;2.13;;;;;7.80;101777.00;;;;9865491;29;20322;-81
2023/04/16 02:07:17;;;;;;;9.17;3.27;;;;;7.80;101772.00;;;;9842987;30;20262;-82
2023/04/16 02:12:19;;;;;;;5.67;2.57;;;;;7.80;101775.00;;;;9828837;30;20232;-82
2023/04/16 02:17:22;;;;;;;7.63;3.37;;;;;7.80;101773.00;;;;9860406;29;20520;-82
2023/04/16 02:22:25;;;;;;;7.93;2.37;;;;;7.80;101767.00;;;;9880583;29;20764;-82
2023/04/16 02:27:27;;;;;;;5.63;2.70;;;;;7.80;101766.00;;;;9869157;29;20212;-82
2023/04/16 02:32:37;;;;;;;4.97;3.13;;;;;7.90;101768.00;;;;9869629;29;20199;-82
2023/04/16 02:37:40;;;;;;;5.30;2.93;;;;;7.90;101775.00;;;;9865459;29;20667;-82
2023/04/16 02:42:42;;;;;;;7.87;3.67;;;;;7.80;101770.00;;;;9850966;29;20752;-82
2023/04/16 02:47:44;;;;;;;8.03;3.63;;;;;7.80;101765.00;;;;9869263;29;20216;-82
2023/04/16 02:52:47;;;;;;;6.47;3.57;;;;;7.90;101767.00;;;;9850997;29;20212;-82
2023/04/16 02:57:50;;;;;;;6.13;2.93;;;;;7.80;101771.00;;;;9878047;29;20277;-82
2023/04/16 03:02:52;;;;;;;6.47;3.23;;;;;7.70;101765.00;;;;9843573;29;20475;-83
2023/04/16 03:07:56;;;;;;;5.43;3.87;;;;;7.60;101775.00;;;;9842716;30;20200;-82
2023/04/16 03:12:58;;;;;;;6.00;4.40;;;;;7.50;101777.00;;;;9863678;29;20231;-82
2023/04/16 03:18:00;;;;;;;10.47;5.03;;;;;7.60;101779.00;;;;9880032;29;20221;-81
2023/04/16 03:23:02;;;;;;;7.20;4.93;;;;;7.40;101784.00;;;;9892541;29;20231;-83
2023/04/16 03:28:04;;;;;;;6.80;5.40;;;;;7.20;101772.00;;;;9844644;29;20214;-81
2023/04/16 03:33:07;;;;;;;9.50;6.47;;;;;7.20;101769.00;;;;9864108;29;20617;-82
2023/04/16 03:38:09;;;;;;;7.80;6.53;;;;;7.20;101773.00;;;;9850053;29;20235;-82
2023/04/16 03:43:11;;;;;;;10.97;7.10;;;;;7.10;101778.00;;;;9862334;29;20227;-82
2023/04/16 03:48:13;;;;;;;12.50;6.87;;;;;7.10;101774.00;;;;9863782;29;20278;-80
2023/04/16 03:53:16;;;;;;;7.83;6.03;;;;;7.00;101767.00;;;;9874917;29;20216;-79
2023/04/16 03:58:19;;;;;;;20.43;5.73;;;;;7.00;101766.00;;;;9858966;29;20224;-80
2023/04/16 04:03:22;;;;;;;11.40;5.90;;;;;6.90;101776.00;;;;9862167;29;20276;-80
2023/04/16 04:08:25;;;;;;;10.37;5.30;;;;;6.90;101784.00;;;;9859530;29;20674;-79
2023/04/16 04:13:27;;;;;;;8.83;5.47;;;;;6.90;101784.00;;;;9853637;29;20222;-79
2023/04/16 04:18:29;;;;;;;8.63;5.57;;;;;6.90;101778.00;;;;9838673;29;20231;-80
2023/04/16 04:23:36;;;;;;;16.03;5.93;;;;;6.90;101784.00;;;;9850142;30;20618;-79
2023/04/16 04:28:40;;;;;;;12.73;5.80;;;;;6.90;101793.00;;;;9859054;29;20243;-81
2023/04/16 04:33:42;;;;;;;11.23;5.93;;;;;6.90;101791.00;;;;9816528;30;20330;-81
2023/04/16 04:38:44;;;;;;;8.17;5.77;;;;;6.90;101795.00;;;;9859141;29;20208;-80
2023/04/16 04:43:46;;;;;;;10.27;6.20;;;;;6.90;101808.00;;;;9872299;29;20711;-81
2023/04/16 04:48:49;;;;;;;10.50;7.17;;;;;6.90;101800.00;;;;9829555;29;20214;-79
2023/04/16 04:53:51;;;;;;;10.17;7.20;;;;;6.90;101816.00;;;;9823258;30;20240;-80
2023/04/16 04:58:55;;;;;;;9.97;7.00;;;;;6.90;101813.00;;;;9856439;29;20226;-80
2023/04/16 05:03:58;;;;;;;9.83;7.23;;;;;6.90;101823.00;;;;9865320;29;20837;-80
2023/04/16 05:09:00;;;;;;;12.00;7.27;;;;;6.90;101823.00;;;;9866996;29;20751;-79
2023/04/16 05:14:02;;;;;;;10.23;7.87;;;;;7.00;101821.00;;;;9864699;29;20212;-80
2023/04/16 05:19:04;;;;;;;15.83;8.13;;;;;7.00;101830.00;;;;9892561;29;20216;-80
2023/04/16 05:24:06;;;;;;;16.07;7.67;;;;;7.00;101831.00;;;;9886953;29;20318;-80
2023/04/16 05:29:08;;;;;;;12.27;7.33;;;;;7.00;101830.00;;;;9861795;29;20266;-79
2023/04/16 05:34:10;;;;;;;13.47;6.90;;;;;7.10;101827.00;;;;9833114;29;20304;-79
2023/04/16 05:39:12;;;;;;;7.27;6.00;;;;;7.00;101830.00;;;;9813206;30;20236;-79
2023/04/16 05:44:14;;;;;;;10.40;5.10;;;;;7.00;101827.00;;;;9816272;30;20229;-80
2023/04/16 05:49:20;;;;;;;10.20;5.00;;;;;7.00;101843.00;;;;9853666;29;20580;-80
2023/04/16 05:54:23;;;;;;;5.70;4.57;;;;;7.00;101831.00;;;;9890480;29;20216;-80
2023/04/16 05:59:25;;;;;;;11.43;4.33;;;;;7.00;101843.00;;;;9851825;29;20553;-80
2023/04/16 06:04:27;;;;;;;10.33;3.97;;;;;7.10;101852.00;;;;9877632;29;20247;-79
2023/04/16 06:09:29;;;;;;;8.60;3.40;;;;;7.10;101846.00;;;;9876522;29;20210;-80
2023/04/16 06:14:31;;;;;;;7.23;4.07;;;;;7.10;101852.00;;;;9865428;29;20196;-80
2023/04/16 06:19:33;;;;;;;9.20;5.20;;;;;7.10;101858.00;;;;9865838;29;20580;-80
2023/04/16 06:24:35;;;;;;;10.63;5.77;;;;;7.10;101855.00;;;;9858615;29;20346;-79
2023/04/16 06:29:37;;;;;;;10.10;5.57;;;;;7.00;101856.00;;;;9852936;29;20891;-79
2023/04/16 06:34:42;;;;;;;10.87;7.17;;;;;7.00;101870.00;;;;9846965;29;20271;-79
2023/04/16 06:39:44;;;;;;;15.07;7.07;;;;;7.00;101871.00;;;;9845337;29;20207;-79
2023/04/16 06:44:46;;;;;;;13.93;7.77;;;;;7.10;101865.00;;;;9847903;29;20872;-79
2023/04/16 06:49:48;;;;;;;10.00;7.60;;;;;7.20;101876.00;;;;9840517;29;20200;-80
2023/04/16 06:54:51;;;;;;;11.07;6.57;;;;;7.20;101875.00;;;;9855311;29;20609;-79
2023/04/16 06:59:53;;;;;;;10.57;6.30;;;;;7.20;101887.00;;;;9859470;29;20756;-80
2023/04/16 07:04:55;;;;;;;11.50;7.03;;;;;7.30;101883.00;;;;9825269;29;20241;-80
2023/04/16 07:09:57;;;;;;;12.10;6.83;;;;;7.40;101872.00;;;;9843986;29;20200;-79
2023/04/16 07:14:59;;;;;;;16.83;8.23;;;;;7.40;101888.00;;;;9864894;29;20835;-81
2023/04/16 07:20:01;;;;;;;11.97;7.90;;;;;7.50;101875.00;;;;9877267;29;20204;-80
2023/04/16 07:25:04;;;;;;;13.10;8.30;;;;;7.50;101885.00;;;;9839172;29;20246;-79
2023/04/16 07:30:07;;;;;;;14.80;8.77;;;;;7.60;101881.00;;;;9847327;29;20211;-80
2023/04/16 07:35:09;;;;;;;13.10;8.57;;;;;7.60;101883.00;;;;9798373;29;20228;-79
2023/04/16 07:40:11;;;;;;;23.10;10.47;;;;;7.60;101888.00;;;;9811380;29;20219;-79
2023/04/16 07:45:13;;;;;;;18.07;9.83;;;;;7.70;101889.00;;;;9816283;29;20263;-79
2023/04/16 07:50:15;;;;;;;20.37;10.30;;;;;7.80;101897.00;;;;9829784;29;20465;-79
2023/04/16 07:55:17;;;;;;;22.60;11.63;;;;;7.90;101898.00;;;;9835841;29;20214;-80
2023/04/16 08:00:19;;;;;;;27.77;13.53;;;;;7.90;101898.00;;;;9853155;29;20227;-79
2023/04/16 08:05:21;;;;;;;26.13;13.77;;;;;7.90;101910.00;;;;9844220;29;20614;-79
2023/04/16 08:10:23;;;;;;;25.60;15.60;;;;;8.00;101915.00;;;;9845221;29;20219;-79
2023/04/16 08:15:26;;;;;;;31.73;17.30;;;;;8.00;101911.00;;;;9843777;29;20211;-79
2023/04/16 08:20:29;;;;;;;24.87;14.57;;;;;8.10;101921.00;;;;9819772;29;20219;-80
2023/04/16 08:25:31;;;;;;;22.03;14.13;;;;;8.10;101916.00;;;;9829048;29;20238;-80
2023/04/16 08:30:33;;;;;;;26.70;16.87;;;;;8.10;101926.00;;;;9819495;29;20299;-80
2023/04/16 08:35:35;;;;;;;23.67;14.90;;;;;8.20;101919.00;;;;9809725;29;20251;-80
2023/04/16 08:40:39;;;;;;;29.90;17.43;;;;;8.20;101921.00;;;;9818514;29;21437;-80
2023/04/16 08:45:43;;;;;;;30.30;17.93;;;;;8.20;101929.00;;;;9826463;29;20228;-79
2023/04/16 08:50:46;;;;;;;29.63;15.57;;;;;8.40;101933.00;;;;9826983;29;20223;-80
2023/04/16 08:55:50;;;;;;;24.23;14.03;;;;;8.50;101932.00;;;;9845477;29;20355;-77
2023/04/16 09:00:53;;;;;;;28.47;13.40;;;;;8.50;101940.00;;;;9810782;29;20248;-77
2023/04/16 09:05:57;;;;;;;25.43;12.33;;;;;8.50;101944.00;;;;9827786;29;20300;-78
2023/04/16 09:10:59;;;;;;;22.37;12.53;;;;;8.50;101947.00;;;;9810238;29;20228;-78
2023/04/16 09:16:02;;;;;;;24.20;12.30;;;;;8.50;101945.00;;;;9819363;29;20239;-79
2023/04/16 09:21:06;;;;;;;23.53;13.27;;;;;8.30;101947.00;;;;9846910;29;20226;-78
2023/04/16 09:26:09;;;;;;;30.27;14.50;;;;;8.20;101956.00;;;;9824184;29;20211;-81
2023/04/16 09:31:16;;;;;;;27.57;14.23;;;;;8.30;101959.00;;;;9834695;29;20261;-77
2023/04/16 09:36:22;;;;;;;31.10;14.87;;;;;8.30;101953.00;;;;9848812;29;20212;-78
2023/04/16 09:41:27;;;;;;;24.80;14.20;;;;;8.20;101958.00;;;;9859121;29;20211;-77
2023/04/16 09:46:30;;;;;;;25.90;12.77;;;;;8.20;101972.00;;;;9822362;29;20869;-79
2023/04/16 09:51:37;;;;;;;31.40;15.17;;;;;8.20;101974.00;;;;9861377;29;20297;-79
2023/04/16 09:56:41;;;;;;;23.13;13.73;;;;;8.30;101969.00;;;;9871908;29;20225;-78
2023/04/16 10:01:45;;;;;;;25.67;14.47;;;;;8.30;101975.00;;;;9876648;29;20246;-79
2023/04/16 10:07:04;;;;;;;25.97;13.10;;;;;8.50;101977.00;;;;9863062;29;20238;-78
2023/04/16 10:12:07;;;;;;;22.53;11.87;;;;;8.50;101980.00;;;;9863123;29;20306;-79
2023/04/16 10:17:09;;;;;;;22.17;11.60;;;;;8.60;101978.00;;;;9826482;30;20212;-79
2023/04/16 10:22:11;;;;;;;28.30;12.37;;;;;8.70;101984.00;;;;9840432;29;20227;-79
2023/04/16 10:27:13;;;;;;;19.73;12.33;;;;;8.80;101983.00;;;;9861664;29;20207;-79
2023/04/16 10:32:17;;;;;;;20.93;11.53;;;;;8.90;101986.00;;;;9848780;29;20688;-79
2023/04/16 10:37:28;;;;;;;20.87;11.13;;;;;8.90;101988.00;;;;9862138;29;20327;-79
2023/04/16 10:42:30;;;;;;;16.80;11.27;;;;;9.00;101990.00;;;;9862949;29;20293;-79
2023/04/16 10:47:38;;;;;;;20.23;10.70;;;;;9.00;101988.00;;;;9862141;29;20207;-79
2023/04/16 10:52:40;;;;;;;20.20;11.30;;;;;9.00;101983.00;;;;9862561;29;20222;-79
2023/04/16 10:57:42;;;;;;;25.07;12.17;;;;;9.10;101982.00;;;;9841555;29;20223;-79
2023/04/16 11:02:44;;;;;;;23.60;13.20;;;;;9.30;101980.00;;;;9838443;29;20704;-78
2023/04/16 11:07:48;;;;;;;28.53;13.53;;;;;9.50;101980.00;;;;9830399;29;20833;-79
2023/04/16 11:12:52;;;;;;;22.57;13.03;;;;;9.70;101959.00;;;;9831479;29;20215;-79
2023/04/16 11:17:54;;;;;;;25.27;13.03;;;;;9.70;101972.00;;;;9859306;29;20214;-79
2023/04/16 11:22:57;;;;;;;22.53;13.60;;;;;9.70;101976.00;;;;9859152;29;20223;-80
2023/04/16 11:28:01;;;;;;;21.60;14.30;;;;;9.70;101975.00;;;;9848537;29;20346;-79
2023/04/16 11:33:10;;;;;;;23.10;12.40;;;;;9.60;101976.00;;;;9847161;29;20963;-79
2023/04/16 11:38:12;;;;;;;22.33;14.73;;;;;9.60;101972.00;;;;9844381;29;20790;-79
2023/04/16 11:43:15;;;;;;;22.33;12.93;;;;;9.70;101976.00;;;;9812024;30;20323;-80
2023/04/16 11:48:17;;;;;;;21.40;14.50;;;;;9.70;101978.00;;;;9849548;29;20223;-79
2023/04/16 11:53:19;;;;;;;24.30;14.77;;;;;9.80;101985.00;;;;9850716;29;20219;-79
2023/04/16 11:58:22;;;;;;;21.37;13.80;;;;;9.80;101987.00;;;;9861190;29;20223;-80
2023/04/16 12:03:39;;;;;;;29.53;17.47;;;;;9.90;101987.00;;;;9837248;29;20234;-79
2023/04/16 12:08:41;;;;;;;22.87;15.97;;;;;9.90;101990.00;;;;9850393;29;20229;-79
2023/04/16 12:14:10;;;;;;;24.27;15.30;;;;;10.00;101987.00;;;;9883443;29;20242;-79
2023/04/16 12:19:12;;;;;;;18.97;14.90;;;;;10.10;101987.00;;;;9854123;29;20206;-79
2023/04/16 12:24:23;;;;;;;26.77;16.53;;;;;10.10;101999.00;;;;9828188;30;20223;-80
2023/04/16 12:29:26;;;;;;;21.93;15.10;;;;;10.00;101992.00;;;;9851920;29;20209;-79
2023/04/16 12:34:28;;;;;;;24.63;16.27;;;;;10.10;101995.00;;;;9853166;29;20732;-80
2023/04/16 12:39:50;;;;;;;26.90;19.43;;;;;10.10;101999.00;;;;9863744;29;20238;-79
2023/04/16 12:44:52;;;;;;;30.00;21.37;;;;;10.20;102003.00;;;;9859228;29;20235;-80
2023/04/16 12:49:56;;;;;;;24.23;17.70;;;;;10.20;101996.00;;;;9845702;29;20262;-81
2023/04/16 12:54:58;;;;;;;29.70;18.83;;;;;10.20;101998.00;;;;9861160;29;20196;-80
2023/04/16 13:00:00;;;;;;;29.57;21.63;;;;;10.20;101999.00;;;;9824143;29;20270;-80
2023/04/16 13:05:03;;;;;;;25.93;17.80;;;;;10.40;101998.00;;;;9840201;30;20265;-80
2023/04/16 13:10:05;;;;;;;25.17;18.17;;;;;10.70;101999.00;;;;9858587;29;20695;-80
2023/04/16 13:15:08;;;;;;;31.37;20.07;;;;;10.60;101988.00;;;;9847788;29;20208;-80
2023/04/16 13:20:11;;;;;;;24.47;16.77;;;;;10.70;101989.00;;;;9858981;29;20384;-80
2023/04/16 13:25:13;;;;;;;23.37;15.07;;;;;10.60;101986.00;;;;9865444;29;20595;-81
2023/04/16 13:30:15;;;;;;;20.47;14.00;;;;;10.70;101999.00;;;;9879503;29;20219;-81
2023/04/16 13:35:17;;;;;;;22.90;14.87;;;;;10.80;101983.00;;;;9857345;29;20285;-80
2023/04/16 13:40:19;;;;;;;25.03;15.07;;;;;10.60;101988.00;;;;9852181;29;20211;-79
2023/04/16 13:45:23;;;;;;;23.73;15.80;;;;;10.70;101992.00;;;;9852378;29;20235;-79
2023/04/16 13:50:25;;;;;;;30.37;17.70;;;;;10.90;101984.00;;;;9888306;29;20214;-81
2023/04/16 13:55:29;;;;;;;26.93;16.87;;;;;11.10;101988.00;;;;9875073;29;20267;-80
2023/04/16 14:00:31;;;;;;;23.80;15.90;;;;;11.10;101986.00;;;;9849694;29;20215;-79
2023/04/16 14:05:33;;;;;;;26.00;16.13;;;;;10.90;101992.00;;;;9881087;29;20265;-80
2023/04/16 14:10:35;;;;;;;23.47;15.87;;;;;10.80;101999.00;;;;9864563;29;20198;-80
2023/04/16 14:15:38;;;;;;;22.40;17.47;;;;;10.60;101995.00;;;;9878282;29;20810;-80
2023/04/16 14:20:40;;;;;;;24.83;18.33;;;;;10.50;101999.00;;;;9876610;29;20330;-81
2023/04/16 14:25:41;;;;;;;25.07;16.10;;;;;10.60;101989.00;;;;9849779;29;20230;-80
2023/04/16 14:30:43;;;;;;;24.20;16.67;;;;;10.80;101989.00;;;;9865362;29;20243;-80
2023/04/16 14:35:45;;;;;;;23.57;17.20;;;;;11.20;101984.00;;;;9859653;29;20290;-81
2023/04/16 14:40:47;;;;;;;25.20;16.83;;;;;12.00;101979.00;;;;9863304;29;20210;-81
2023/04/16 14:45:50;;;;;;;23.57;15.83;;;;;12.40;101972.00;;;;9842808;29;20216;-80
2023/04/16 14:50:52;;;;;;;18.20;14.20;;;;;12.70;101970.00;;;;9862833;29;20729;-80
2023/04/16 14:55:57;;;;;;;16.07;13.53;;;;;12.70;101970.00;;;;9862308;29;20215;-80
2023/04/16 15:00:59;;;;;;;17.47;13.93;;;;;12.10;101968.00;;;;9847058;29;20208;-80
2023/04/16 15:06:02;;;;;;;15.97;12.83;;;;;11.90;101969.00;;;;9862574;29;20223;-84
2023/04/16 15:11:04;;;;;;;16.73;13.00;;;;;11.90;101973.00;;;;9844699;29;20219;-80
2023/04/16 15:16:06;;;;;;;20.50;13.97;;;;;12.10;101977.00;;;;9837114;29;20211;-80
2023/04/16 15:21:08;;;;;;;21.07;15.00;;;;;12.20;101977.00;;;;9862300;29;20204;-80
2023/04/16 15:26:13;;;;;;;18.40;14.10;;;;;11.90;101977.00;;;;9865602;29;20711;-80
2023/04/16 15:31:15;;;;;;;20.70;15.03;;;;;11.60;101973.00;;;;9864294;29;20204;-80
2023/04/16 15:36:17;;;;;;;18.57;15.77;;;;;11.40;101984.00;;;;9866814;29;20216;-80
2023/04/16 15:41:19;;;;;;;22.37;17.63;;;;;11.50;101980.00;;;;9842638;29;20212;-80
2023/04/16 15:46:22;;;;;;;23.13;16.40;;;;;11.50;101980.00;;;;9851201;29;20948;-81
2023/04/16 15:51:24;;;;;;;19.03;15.97;;;;;11.70;101982.00;;;;9858814;29;20215;-80
2023/04/16 15:56:26;;;;;;;18.47;15.80;;;;;11.40;101987.00;;;;9856350;29;20335;-80
2023/04/16 16:01:28;;;;;;;26.90;19.17;;;;;11.30;101991.00;;;;9859142;29;20719;-81
2023/04/16 16:06:40;;;;;;;21.53;17.40;;;;;11.30;101986.00;;;;9843344;29;20757;-80
2023/04/16 16:11:42;;;;;;;26.53;20.57;;;;;11.00;101982.00;;;;9844749;29;20200;-80
2023/04/16 16:16:44;;;;;;;26.67;18.87;;;;;10.80;101969.00;;;;9858637;29;20219;-79
2023/04/16 16:21:46;;;;;;;23.97;18.40;;;;;10.90;101981.00;;;;9870660;29;20196;-80
2023/04/16 16:26:48;;;;;;;21.27;16.90;;;;;10.80;101983.00;;;;9844064;29;20267;-81
2023/04/16 16:31:51;;;;;;;27.10;19.17;;;;;10.80;101988.00;;;;9831467;29;20208;-80
2023/04/16 16:36:53;;;;;;;24.57;18.60;;;;;10.80;101985.00;;;;9836919;29;20208;-80
2023/04/16 16:41:55;;;;;;;27.07;21.30;;;;;10.80;101990.00;;;;9815411;29;20219;-81
2023/04/16 16:46:57;;;;;;;29.07;21.67;;;;;10.90;101986.00;;;;9802776;29;20259;-80
2023/04/16 16:51:59;;;;;;;27.23;21.60;;;;;10.80;101983.00;;;;9800403;29;20276;-80
2023/04/16 16:57:02;;;;;;;30.67;21.83;;;;;10.80;101981.00;;;;9835642;29;20218;-81
2023/04/16 17:02:04;;;;;;;29.73;23.30;;;;;10.80;101985.00;;;;9812801;29;20207;-81
2023/04/16 17:07:06;;;;;;;35.23;22.67;;;;;10.80;101993.00;;;;9825932;29;20787;-80
2023/04/16 17:12:08;;;;;;;23.87;19.13;;;;;10.60;101994.00;;;;9825521;29;20199;-80
2023/04/16 17:17:10;;;;;;;26.23;20.47;;;;;10.50;101991.00;;;;9805468;29;20212;-80
2023/04/16 17:22:12;;;;;;;27.40;19.33;;;;;10.40;101994.00;;;;9810726;29;20239;-80
2023/04/16 17:27:14;;;;;;;25.67;20.33;;;;;10.30;101994.00;;;;9812639;29;20239;-80
2023/04/16 17:32:16;;;;;;;32.57;21.10;;;;;10.30;101990.00;;;;9783282;29;20754;-80
2023/04/16 17:37:19;;;;;;;26.37;20.80;;;;;10.30;101996.00;;;;9821723;29;20211;-80
2023/04/16 17:42:23;;;;;;;28.10;21.77;;;;;10.20;101988.00;;;;9861197;29;20211;-80
2023/04/16 17:47:25;;;;;;;33.93;22.00;;;;;10.20;101993.00;;;;9859159;29;20322;-80
2023/04/16 17:52:27;;;;;;;27.97;20.90;;;;;10.10;101993.00;;;;9864758;29;20268;-80
2023/04/16 17:57:30;;;;;;;29.57;22.77;;;;;10.10;101995.00;;;;9860855;29;20223;-80
2023/04/16 18:02:32;;;;;;;28.33;22.83;;;;;10.00;102008.00;;;;9835459;29;20624;-81
2023/04/16 18:07:35;;;;;;;36.20;24.97;;;;;9.90;102012.00;;;;9859669;29;20216;-80
2023/04/16 18:12:37;;;;;;;40.60;26.47;;;;;9.90;102017.00;;;;9840827;29;20992;-81
2023/04/16 18:17:39;;;;;;;35.37;25.43;;;;;9.90;102021.00;;;;9869290;29;20211;-80
2023/04/16 18:22:41;;;;;;;33.93;26.77;;;;;9.90;102015.00;;;;9849986;29;20615;-80
2023/04/16 18:27:43;;;;;;;33.17;26.10;;;;;9.80;102019.00;;;;9831932;29;20892;-81
2023/04/16 18:32:45;;;;;;;32.83;24.80;;;;;9.80;102029.00;;;;9841985;29;20246;-81
2023/04/16 18:38:07;;;;;;;35.83;25.73;;;;;9.70;102028.00;;;;9851584;29;20257;-80
2023/04/16 18:43:09;;;;;;;38.93;24.70;;;;;9.70;102030.00;;;;9873777;29;20239;-80
2023/04/16 18:48:11;;;;;;;34.10;25.07;;;;;9.70;102036.00;;;;9868634;29;20699;-80
2023/04/16 18:53:13;;;;;;;34.23;26.00;;;;;9.70;102037.00;;;;9842942;29;20204;-80
2023/04/16 18:58:15;;;;;;;36.33;26.53;;;;;9.70;102039.00;;;;9845403;29;20303;-80
2023/04/16 19:03:17;;;;;;;35.67;27.10;;;;;9.70;102040.00;;;;9835715;29;20276;-80
2023/04/16 19:08:19;;;;;;;37.00;26.13;;;;;9.70;102039.00;;;;9841915;29;20707;-80
2023/04/16 19:13:21;;;;;;;36.00;24.97;;;;;9.60;102043.00;;;;9839695;29;20248;-80
2023/04/16 19:18:23;;;;;;;35.90;25.93;;;;;9.60;102048.00;;;;9857803;29;20208;-80
2023/04/16 19:23:26;;;;;;;37.00;27.43;;;;;9.60;102041.00;;;;9846146;29;20227;-81
2023/04/16 19:28:28;;;;;;;36.87;26.77;;;;;9.70;102050.00;;;;9844708;29;20268;-80
2023/04/16 19:33:30;;;;;;;36.83;27.10;;;;;9.70;102053.00;;;;9839974;29;20223;-80
2023/04/16 19:38:32;;;;;;;37.73;25.77;;;;;9.70;102059.00;;;;9803617;29;20735;-80
2023/04/16 19:43:35;;;;;;;40.10;26.93;;;;;9.70;102060.00;;;;9818931;29;20551;-80
2023/04/16 19:48:37;;;;;;;31.10;24.90;;;;;9.70;102062.00;;;;9827892;29;20214;-80
2023/04/16 19:53:40;;;;;;;35.20;24.60;;;;;9.70;102066.00;;;;9841426;29;20218;-80
2023/04/16 19:58:42;;;;;;;32.07;24.17;;;;;9.70;102069.00;;;;9862397;29;20232;-80
2023/04/16 20:03:44;;;;;;;34.40;23.83;;;;;9.70;102075.00;;;;9861183;29;20219;-81
2023/04/16 20:08:46;;;;;;;27.87;21.70;;;;;9.70;102068.00;;;;9864470;29;20211;-79
2023/04/16 20:13:48;;;;;;;30.83;21.63;;;;;9.70;102069.00;;;;9859848;29;20211;-79
2023/04/16 20:18:53;;;;;;;27.90;21.80;;;;;9.60;102067.00;;;;9842145;29;20322;-80
2023/04/16 20:23:55;;;;;;;40.07;23.73;;;;;9.60;102074.00;;;;9841671;29;20232;-81
2023/04/16 20:28:57;;;;;;;32.53;21.67;;;;;9.60;102078.00;;;;9849342;29;20304;-80
2023/04/16 20:33:59;;;;;;;34.03;22.87;;;;;9.60;102067.00;;;;9860695;29;20219;-79
2023/04/16 20:39:01;;;;;;;31.07;23.07;;;;;9.60;102062.00;;;;9846660;29;20212;-80
2023/04/16 20:44:04;;;;;;;31.30;22.27;;;;;9.60;102061.00;;;;9870195;29;20235;-80
2023/04/16 20:49:07;;;;;;;29.43;22.73;;;;;9.60;102060.00;;;;9834057;29;20215;-80
2023/04/16 20:54:11;;;;;;;35.33;23.47;;;;;9.50;102054.00;;;;9869242;29;20734;-80
2023/04/16 20:59:13;;;;;;;31.10;21.73;;;;;9.60;102048.00;;;;9861149;29;20207;-80
2023/04/16 21:04:15;;;;;;;31.03;23.20;;;;;9.50;102049.00;;;;9867492;29;20233;-80
2023/04/16 21:09:21;;;;;;;29.30;21.73;;;;;9.50;102047.00;;;;9839637;29;20235;-80
2023/04/16 21:14:23;;;;;;;32.97;22.00;;;;;9.50;102051.00;;;;9856270;29;20948;-81
2023/04/16 21:19:25;;;;;;;27.47;21.33;;;;;9.50;102046.00;;;;9855025;29;20211;-80
2023/04/16 21:24:27;;;;;;;32.57;22.30;;;;;9.50;102035.00;;;;9872927;29;20223;-80
2023/04/16 21:29:29;;;;;;;31.47;22.03;;;;;9.40;102038.00;;;;9840608;29;20219;-81
2023/04/16 21:34:31;;;;;;;32.77;22.30;;;;;9.40;102035.00;;;;9834786;29;20304;-81
2023/04/16 21:39:33;;;;;;;33.80;24.77;;;;;9.40;102037.00;;;;9819099;29;20209;-80
2023/04/16 21:44:35;;;;;;;35.63;26.03;;;;;9.30;102032.00;;;;9819945;29;20307;-80
2023/04/16 21:49:37;;;;;;;38.53;24.57;;;;;9.30;102035.00;;;;9827006;29;20215;-80
2023/04/16 21:54:40;;;;;;;36.90;26.00;;;;;9.30;102032.00;;;;9816648;29;20234;-80
2023/04/16 21:59:42;;;;;;;39.80;26.70;;;;;9.30;102034.00;;;;9832075;29;20285;-81
2023/04/16 22:04:44;;;;;;;38.67;25.43;;;;;9.30;102033.00;;;;9834379;29;20220;-81
2023/04/16 22:09:46;;;;;;;36.40;25.90;;;;;9.20;102024.00;;;;9849086;29;20219;-80
2023/04/16 22:14:47;;;;;;;40.60;28.00;;;;;9.20;102037.00;;;;9822672;29;20235;-80
2023/04/16 22:20:13;;;;;;;48.60;29.73;;;;;9.20;102038.00;;;;9892884;30;20676;-80
2023/04/16 22:25:15;;;;;;;42.87;28.60;;;;;9.20;102033.00;;;;9864412;29;20242;-80
2023/04/16 22:30:17;;;;;;;42.17;29.17;;;;;9.30;102031.00;;;;9869935;30;20275;-80
2023/04/16 22:35:19;;;;;;;36.83;24.80;;;;;9.30;102035.00;;;;9887372;30;20204;-80
2023/04/16 22:40:21;;;;;;;40.60;27.73;;;;;9.20;102038.00;;;;9856491;30;20207;-80
2023/04/16 22:45:23;;;;;;;38.03;26.57;;;;;9.20;102036.00;;;;9856116;30;20258;-80
2023/04/16 22:50:25;;;;;;;39.70;26.60;;;;;9.20;102035.00;;;;9868230;30;20227;-80
2023/04/16 22:55:26;;;;;;;41.87;27.50;;;;;9.10;102024.00;;;;9863118;29;20195;-79
2023/04/16 23:00:29;;;;;;;41.60;28.50;;;;;9.10;102038.00;;;;9854625;30;20215;-80
2023/04/16 23:05:31;;;;;;;47.50;29.07;;;;;9.10;102036.00;;;;9865160;30;20335;-80
2023/04/16 23:10:33;;;;;;;45.03;27.07;;;;;9.00;102031.00;;;;9868764;30;20249;-79
2023/04/16 23:15:35;;;;;;;41.10;27.20;;;;;9.00;102034.00;;;;9855207;30;20191;-79
2023/04/16 23:20:37;;;;;;;40.97;25.87;;;;;9.00;102037.00;;;;9870073;29;20208;-79
2023/04/16 23:25:40;;;;;;;40.10;26.13;;;;;9.00;102039.00;;;;9864892;29;20704;-80
2023/04/16 23:30:42;;;;;;;42.57;26.97;;;;;9.00;102040.00;;;;9852642;30;20228;-80
2023/04/16 23:35:45;;;;;;;45.07;27.43;;;;;8.90;102038.00;;;;9884329;30;20855;-79
2023/04/16 23:40:47;;;;;;;41.77;26.77;;;;;8.90;102032.00;;;;9844181;30;20248;-80
2023/04/16 23:45:49;;;;;;;41.50;27.17;;;;;8.80;102038.00;;;;9869430;29;20226;-79
2023/04/16 23:50:52;;;;;;;43.53;26.60;;;;;8.80;102052.00;;;;9853986;30;20207;-80
2023/04/16 23:55:53;;;;;;;41.77;24.97;;;;;8.70;102045.00;;;;9884745;29;20251;-80
